sensor_id;sensor_type;location;lat;lon;timestamp;temperature;humidity
73586;DHT22;61865;50.232;18.614;2023-02-08T00:01:57;-2.00;99.90
73586;DHT22;61865;50.232;18.614;2023-02-08T00:04:20;-2.00;99.90
73586;DHT22;61865;50.232;18.614;2023-02-08T00:06:42;-2.00;99.90
73586;DHT22;61865;50.232;18.614;2023-02-08T00:09:05;-2.00;99.90
73586;DHT22;61865;50.232;18.614;2023-02-08T00:11:26;-2.00;99.90
73586;DHT22;61865;50.232;18.614;2023-02-08T00:13:48;-1.90;99.90
73586;DHT22;61865;50.232;18.614;2023-02-08T00:16:11;-1.90;99.90
73586;DHT22;61865;50.232;18.614;2023-02-08T00:18:33;-2.00;99.90
73586;DHT22;61865;50.232;18.614;2023-02-08T00:20:57;-2.00;99.90
73586;DHT22;61865;50.232;18.614;2023-02-08T00:23:18;-2.00;99.90
73586;DHT22;61865;50.232;18.614;2023-02-08T00:25:41;-2.00;99.90
73586;DHT22;61865;50.232;18.614;2023-02-08T00:28:03;-2.00;99.90
73586;DHT22;61865;50.232;18.614;2023-02-08T00:30:25;-2.00;99.90
73586;DHT22;61865;50.232;18.614;2023-02-08T00:32:47;-2.00;99.90
73586;DHT22;61865;50.232;18.614;2023-02-08T00:35:09;-1.90;99.90
73586;DHT22;61865;50.232;18.614;2023-02-08T00:37:32;-1.90;99.90
73586;DHT22;61865;50.232;18.614;2023-02-08T00:39:54;-1.90;99.90
73586;DHT22;61865;50.232;18.614;2023-02-08T00:42:18;-1.90;99.90
73586;DHT22;61865;50.232;18.614;2023-02-08T00:44:40;-1.80;99.90
73586;DHT22;61865;50.232;18.614;2023-02-08T00:47:01;-1.70;99.90
73586;DHT22;61865;50.232;18.614;2023-02-08T00:49:23;-1.70;99.90
73586;DHT22;61865;50.232;18.614;2023-02-08T00:51:45;-1.70;99.90
73586;DHT22;61865;50.232;18.614;2023-02-08T00:54:12;-1.70;99.90
73586;DHT22;61865;50.232;18.614;2023-02-08T00:56:35;-1.90;99.90
73586;DHT22;61865;50.232;18.614;2023-02-08T00:58:57;-2.00;99.90
73586;DHT22;61865;50.232;18.614;2023-02-08T01:01:19;-2.10;99.90
73586;DHT22;61865;50.232;18.614;2023-02-08T01:03:41;-2.20;99.90
73586;DHT22;61865;50.232;18.614;2023-02-08T01:06:05;-2.20;99.90
73586;DHT22;61865;50.232;18.614;2023-02-08T01:08:27;-2.20;99.90
73586;DHT22;61865;50.232;18.614;2023-02-08T01:10:50;-2.20;99.90
73586;DHT22;61865;50.232;18.614;2023-02-08T01:13:12;-2.30;99.90
73586;DHT22;61865;50.232;18.614;2023-02-08T01:15:34;-2.30;99.90
73586;DHT22;61865;50.232;18.614;2023-02-08T01:17:57;-2.40;99.90
73586;DHT22;61865;50.232;18.614;2023-02-08T01:20:19;-2.40;99.90
73586;DHT22;61865;50.232;18.614;2023-02-08T01:22:41;-2.40;99.90
73586;DHT22;61865;50.232;18.614;2023-02-08T01:25:02;-2.40;99.90
73586;DHT22;61865;50.232;18.614;2023-02-08T01:27:26;-2.40;99.90
73586;DHT22;61865;50.232;18.614;2023-02-08T01:29:48;-2.40;99.90
73586;DHT22;61865;50.232;18.614;2023-02-08T01:32:10;-2.40;99.90
73586;DHT22;61865;50.232;18.614;2023-02-08T01:34:31;-2.40;99.90
73586;DHT22;61865;50.232;18.614;2023-02-08T01:36:53;-2.40;99.90
73586;DHT22;61865;50.232;18.614;2023-02-08T01:39:15;-2.20;99.90
73586;DHT22;61865;50.232;18.614;2023-02-08T01:41:38;-2.20;99.90
73586;DHT22;61865;50.232;18.614;2023-02-08T01:44:07;-2.30;99.90
73586;DHT22;61865;50.232;18.614;2023-02-08T01:46:30;-2.30;99.90
73586;DHT22;61865;50.232;18.614;2023-02-08T01:48:53;-2.30;99.90
73586;DHT22;61865;50.232;18.614;2023-02-08T01:51:19;-2.40;99.90
73586;DHT22;61865;50.232;18.614;2023-02-08T01:53:41;-2.40;99.90
73586;DHT22;61865;50.232;18.614;2023-02-08T01:56:10;-2.40;99.90
73586;DHT22;61865;50.232;18.614;2023-02-08T01:58:35;-2.50;99.90
73586;DHT22;61865;50.232;18.614;2023-02-08T02:01:01;-2.50;99.90
73586;DHT22;61865;50.232;18.614;2023-02-08T02:03:24;-2.50;99.90
73586;DHT22;61865;50.232;18.614;2023-02-08T02:05:48;-2.40;99.90
73586;DHT22;61865;50.232;18.614;2023-02-08T02:08:11;-2.30;99.90
73586;DHT22;61865;50.232;18.614;2023-02-08T02:10:35;-2.30;99.90
73586;DHT22;61865;50.232;18.614;2023-02-08T02:13:02;-2.30;99.90
73586;DHT22;61865;50.232;18.614;2023-02-08T02:15:24;-2.30;99.90
73586;DHT22;61865;50.232;18.614;2023-02-08T02:17:48;-2.30;99.90
73586;DHT22;61865;50.232;18.614;2023-02-08T02:20:19;-2.30;99.90
73586;DHT22;61865;50.232;18.614;2023-02-08T02:26:27;-2.20;99.90
73586;DHT22;61865;50.232;18.614;2023-02-08T02:31:58;-2.10;99.90
73586;DHT22;61865;50.232;18.614;2023-02-08T02:34:27;-2.10;99.90
73586;DHT22;61865;50.232;18.614;2023-02-08T02:36:56;-2.10;99.90
73586;DHT22;61865;50.232;18.614;2023-02-08T02:39:28;-2.10;99.90
73586;DHT22;61865;50.232;18.614;2023-02-08T02:41:56;-2.10;99.90
73586;DHT22;61865;50.232;18.614;2023-02-08T02:44:46;-2.10;99.90
73586;DHT22;61865;50.232;18.614;2023-02-08T02:47:16;-2.10;99.90
73586;DHT22;61865;50.232;18.614;2023-02-08T02:49:47;-2.00;99.90
73586;DHT22;61865;50.232;18.614;2023-02-08T02:52:11;-2.00;99.90
73586;DHT22;61865;50.232;18.614;2023-02-08T02:54:39;-2.10;99.90
73586;DHT22;61865;50.232;18.614;2023-02-08T02:57:03;-2.10;99.90
73586;DHT22;61865;50.232;18.614;2023-02-08T02:59:27;-2.10;99.90
73586;DHT22;61865;50.232;18.614;2023-02-08T03:01:49;-2.10;99.90
73586;DHT22;61865;50.232;18.614;2023-02-08T03:04:17;-2.10;99.90
73586;DHT22;61865;50.232;18.614;2023-02-08T03:06:50;-2.10;99.90
73586;DHT22;61865;50.232;18.614;2023-02-08T03:09:34;-2.10;99.90
73586;DHT22;61865;50.232;18.614;2023-02-08T03:12:06;-2.10;99.90
73586;DHT22;61865;50.232;18.614;2023-02-08T03:14:37;-2.20;99.90
73586;DHT22;61865;50.232;18.614;2023-02-08T03:17:20;-2.20;99.90
73586;DHT22;61865;50.232;18.614;2023-02-08T03:19:52;-2.20;99.90
73586;DHT22;61865;50.232;18.614;2023-02-08T03:22:21;-2.20;99.90
73586;DHT22;61865;50.232;18.614;2023-02-08T03:24:52;-2.10;99.90
73586;DHT22;61865;50.232;18.614;2023-02-08T03:27:18;-2.10;99.90
73586;DHT22;61865;50.232;18.614;2023-02-08T03:29:46;-2.10;99.90
73586;DHT22;61865;50.232;18.614;2023-02-08T03:32:17;-2.10;99.90
73586;DHT22;61865;50.232;18.614;2023-02-08T03:34:46;-2.10;99.90
73586;DHT22;61865;50.232;18.614;2023-02-08T03:37:12;-2.20;99.90
73586;DHT22;61865;50.232;18.614;2023-02-08T03:39:37;-2.20;99.90
73586;DHT22;61865;50.232;18.614;2023-02-08T03:42:03;-2.10;99.90
73586;DHT22;61865;50.232;18.614;2023-02-08T03:44:31;-2.10;99.90
73586;DHT22;61865;50.232;18.614;2023-02-08T03:46:56;-2.10;99.90
73586;DHT22;61865;50.232;18.614;2023-02-08T03:49:24;-2.10;99.90
73586;DHT22;61865;50.232;18.614;2023-02-08T03:51:49;-2.10;99.90
73586;DHT22;61865;50.232;18.614;2023-02-08T03:54:16;-2.10;99.90
73586;DHT22;61865;50.232;18.614;2023-02-08T03:56:43;-2.10;99.90
73586;DHT22;61865;50.232;18.614;2023-02-08T03:59:10;-2.10;99.90
73586;DHT22;61865;50.232;18.614;2023-02-08T04:01:40;-2.10;99.90
73586;DHT22;61865;50.232;18.614;2023-02-08T04:04:03;-2.10;99.90
73586;DHT22;61865;50.232;18.614;2023-02-08T04:06:25;-2.10;99.90
73586;DHT22;61865;50.232;18.614;2023-02-08T04:08:49;-2.20;99.90
73586;DHT22;61865;50.232;18.614;2023-02-08T04:11:12;-2.10;99.90
73586;DHT22;61865;50.232;18.614;2023-02-08T04:13:34;-2.10;99.90
73586;DHT22;61865;50.232;18.614;2023-02-08T04:15:55;-2.10;99.90
73586;DHT22;61865;50.232;18.614;2023-02-08T04:18:17;-2.10;99.90
73586;DHT22;61865;50.232;18.614;2023-02-08T04:20:39;-2.20;99.90
73586;DHT22;61865;50.232;18.614;2023-02-08T04:23:01;-2.10;99.90
73586;DHT22;61865;50.232;18.614;2023-02-08T04:25:25;-2.10;99.90
73586;DHT22;61865;50.232;18.614;2023-02-08T04:27:46;-2.20;99.90
73586;DHT22;61865;50.232;18.614;2023-02-08T04:30:09;-2.10;99.90
73586;DHT22;61865;50.232;18.614;2023-02-08T04:32:33;-2.10;99.90
73586;DHT22;61865;50.232;18.614;2023-02-08T04:34:55;-2.10;99.90
73586;DHT22;61865;50.232;18.614;2023-02-08T04:37:16;-2.00;99.90
73586;DHT22;61865;50.232;18.614;2023-02-08T04:39:38;-2.00;99.90
73586;DHT22;61865;50.232;18.614;2023-02-08T04:42:02;-1.90;99.90
73586;DHT22;61865;50.232;18.614;2023-02-08T04:44:24;-2.00;99.90
73586;DHT22;61865;50.232;18.614;2023-02-08T04:46:46;-1.90;99.90
73586;DHT22;61865;50.232;18.614;2023-02-08T04:49:08;-2.00;99.90
73586;DHT22;61865;50.232;18.614;2023-02-08T04:51:30;-2.00;99.90
73586;DHT22;61865;50.232;18.614;2023-02-08T04:53:52;-2.00;99.90
73586;DHT22;61865;50.232;18.614;2023-02-08T04:56:14;-2.00;99.90
73586;DHT22;61865;50.232;18.614;2023-02-08T04:58:37;-1.90;99.90
73586;DHT22;61865;50.232;18.614;2023-02-08T05:00:59;-2.00;99.90
73586;DHT22;61865;50.232;18.614;2023-02-08T05:03:21;-2.00;99.90
73586;DHT22;61865;50.232;18.614;2023-02-08T05:05:42;-1.90;99.90
73586;DHT22;61865;50.232;18.614;2023-02-08T05:08:04;-1.90;99.90
73586;DHT22;61865;50.232;18.614;2023-02-08T05:10:27;-1.90;99.90
73586;DHT22;61865;50.232;18.614;2023-02-08T05:12:48;-1.80;99.90
73586;DHT22;61865;50.232;18.614;2023-02-08T05:15:12;-1.80;99.90
73586;DHT22;61865;50.232;18.614;2023-02-08T05:17:34;-1.80;99.90
73586;DHT22;61865;50.232;18.614;2023-02-08T05:19:56;-1.70;99.90
73586;DHT22;61865;50.232;18.614;2023-02-08T05:22:18;-1.70;99.90
73586;DHT22;61865;50.232;18.614;2023-02-08T05:24:40;-1.70;99.90
73586;DHT22;61865;50.232;18.614;2023-02-08T05:27:02;-1.60;99.90
73586;DHT22;61865;50.232;18.614;2023-02-08T05:29:23;-1.70;99.90
73586;DHT22;61865;50.232;18.614;2023-02-08T05:31:47;-1.60;99.90
73586;DHT22;61865;50.232;18.614;2023-02-08T05:34:09;-1.50;99.90
73586;DHT22;61865;50.232;18.614;2023-02-08T05:36:31;-1.60;99.90
73586;DHT22;61865;50.232;18.614;2023-02-08T05:38:53;-1.50;99.90
73586;DHT22;61865;50.232;18.614;2023-02-08T05:41:15;-1.50;99.90
73586;DHT22;61865;50.232;18.614;2023-02-08T05:43:38;-1.50;99.90
73586;DHT22;61865;50.232;18.614;2023-02-08T05:45:59;-1.50;99.90
73586;DHT22;61865;50.232;18.614;2023-02-08T05:48:23;-1.50;99.90
73586;DHT22;61865;50.232;18.614;2023-02-08T05:50:45;-1.50;99.90
73586;DHT22;61865;50.232;18.614;2023-02-08T05:53:07;-1.50;99.90
73586;DHT22;61865;50.232;18.614;2023-02-08T05:55:29;-1.50;99.90
73586;DHT22;61865;50.232;18.614;2023-02-08T05:57:51;-1.50;99.90
73586;DHT22;61865;50.232;18.614;2023-02-08T06:00:14;-1.40;99.90
73586;DHT22;61865;50.232;18.614;2023-02-08T06:02:36;-1.50;99.90
73586;DHT22;61865;50.232;18.614;2023-02-08T06:04:59;-1.40;99.90
73586;DHT22;61865;50.232;18.614;2023-02-08T06:07:21;-1.40;99.90
73586;DHT22;61865;50.232;18.614;2023-02-08T06:09:42;-1.40;99.90
73586;DHT22;61865;50.232;18.614;2023-02-08T06:12:05;-1.40;99.90
73586;DHT22;61865;50.232;18.614;2023-02-08T06:14:27;-1.30;99.90
73586;DHT22;61865;50.232;18.614;2023-02-08T06:16:48;-1.30;99.90
73586;DHT22;61865;50.232;18.614;2023-02-08T06:19:10;-1.20;99.90
73586;DHT22;61865;50.232;18.614;2023-02-08T06:21:34;-1.20;99.90
73586;DHT22;61865;50.232;18.614;2023-02-08T06:23:56;-1.20;99.90
73586;DHT22;61865;50.232;18.614;2023-02-08T06:26:18;-1.10;99.90
73586;DHT22;61865;50.232;18.614;2023-02-08T06:28:39;-1.10;99.90
73586;DHT22;61865;50.232;18.614;2023-02-08T06:31:01;-1.10;99.90
73586;DHT22;61865;50.232;18.614;2023-02-08T06:33:23;-1.10;99.90
73586;DHT22;61865;50.232;18.614;2023-02-08T06:35:46;-1.10;99.90
73586;DHT22;61865;50.232;18.614;2023-02-08T06:38:10;-1.10;99.90
73586;DHT22;61865;50.232;18.614;2023-02-08T06:40:32;-1.10;99.90
73586;DHT22;61865;50.232;18.614;2023-02-08T06:42:53;-1.00;99.90
73586;DHT22;61865;50.232;18.614;2023-02-08T06:45:16;-1.00;99.90
73586;DHT22;61865;50.232;18.614;2023-02-08T06:47:38;-1.00;99.90
73586;DHT22;61865;50.232;18.614;2023-02-08T06:50:00;-1.00;99.90
73586;DHT22;61865;50.232;18.614;2023-02-08T06:52:21;-1.00;99.90
73586;DHT22;61865;50.232;18.614;2023-02-08T06:54:45;-0.90;99.90
73586;DHT22;61865;50.232;18.614;2023-02-08T06:57:07;-0.90;99.90
73586;DHT22;61865;50.232;18.614;2023-02-08T06:59:29;-0.90;99.90
73586;DHT22;61865;50.232;18.614;2023-02-08T07:01:51;-0.90;99.90
73586;DHT22;61865;50.232;18.614;2023-02-08T07:04:12;-0.90;99.90
73586;DHT22;61865;50.232;18.614;2023-02-08T07:06:34;-0.90;99.90
73586;DHT22;61865;50.232;18.614;2023-02-08T07:08:56;-0.90;99.90
73586;DHT22;61865;50.232;18.614;2023-02-08T07:11:20;-0.90;99.90
73586;DHT22;61865;50.232;18.614;2023-02-08T07:13:44;-0.80;99.90
73586;DHT22;61865;50.232;18.614;2023-02-08T07:16:07;-0.80;99.90
73586;DHT22;61865;50.232;18.614;2023-02-08T07:18:30;-0.80;99.90
73586;DHT22;61865;50.232;18.614;2023-02-08T07:20:52;-0.80;99.90
73586;DHT22;61865;50.232;18.614;2023-02-08T07:23:14;-0.70;99.90
73586;DHT22;61865;50.232;18.614;2023-02-08T07:25:36;-0.70;99.90
73586;DHT22;61865;50.232;18.614;2023-02-08T07:27:59;-0.70;99.90
73586;DHT22;61865;50.232;18.614;2023-02-08T07:30:21;-0.60;99.90
73586;DHT22;61865;50.232;18.614;2023-02-08T07:32:43;-0.60;99.90
73586;DHT22;61865;50.232;18.614;2023-02-08T07:35:05;-0.60;99.90
73586;DHT22;61865;50.232;18.614;2023-02-08T07:37:27;-0.60;99.90
73586;DHT22;61865;50.232;18.614;2023-02-08T07:39:49;-0.60;99.90
73586;DHT22;61865;50.232;18.614;2023-02-08T07:42:11;-0.60;99.90
73586;DHT22;61865;50.232;18.614;2023-02-08T07:44:35;-0.60;99.90
73586;DHT22;61865;50.232;18.614;2023-02-08T07:46:57;-0.60;99.90
73586;DHT22;61865;50.232;18.614;2023-02-08T07:49:21;-0.60;99.90
73586;DHT22;61865;50.232;18.614;2023-02-08T07:51:43;-0.60;99.90
73586;DHT22;61865;50.232;18.614;2023-02-08T07:54:04;-0.60;99.90
73586;DHT22;61865;50.232;18.614;2023-02-08T07:56:26;-0.50;99.90
73586;DHT22;61865;50.232;18.614;2023-02-08T07:58:48;-0.50;99.90
73586;DHT22;61865;50.232;18.614;2023-02-08T08:01:12;-0.40;99.90
73586;DHT22;61865;50.232;18.614;2023-02-08T08:03:33;-0.30;99.90
73586;DHT22;61865;50.232;18.614;2023-02-08T08:05:55;-0.30;99.90
73586;DHT22;61865;50.232;18.614;2023-02-08T08:08:17;-0.30;99.90
73586;DHT22;61865;50.232;18.614;2023-02-08T08:10:39;-0.20;99.90
73586;DHT22;61865;50.232;18.614;2023-02-08T08:13:01;-0.10;99.90
73586;DHT22;61865;50.232;18.614;2023-02-08T08:15:23;-0.10;99.90
73586;DHT22;61865;50.232;18.614;2023-02-08T08:17:46;0.00;99.90
73586;DHT22;61865;50.232;18.614;2023-02-08T08:20:09;0.00;99.90
73586;DHT22;61865;50.232;18.614;2023-02-08T08:22:31;0.10;99.90
73586;DHT22;61865;50.232;18.614;2023-02-08T08:24:53;0.00;99.90
73586;DHT22;61865;50.232;18.614;2023-02-08T08:27:15;0.00;99.90
73586;DHT22;61865;50.232;18.614;2023-02-08T08:29:37;0.00;99.90
73586;DHT22;61865;50.232;18.614;2023-02-08T08:31:59;-0.10;99.90
73586;DHT22;61865;50.232;18.614;2023-02-08T08:34:23;-0.20;99.90
73586;DHT22;61865;50.232;18.614;2023-02-08T08:36:49;-0.20;99.90
73586;DHT22;61865;50.232;18.614;2023-02-08T08:39:11;-0.20;99.90
73586;DHT22;61865;50.232;18.614;2023-02-08T08:41:33;-0.20;99.90
73586;DHT22;61865;50.232;18.614;2023-02-08T08:43:56;-0.20;99.90
73586;DHT22;61865;50.232;18.614;2023-02-08T08:46:18;-0.20;99.90
73586;DHT22;61865;50.232;18.614;2023-02-08T08:48:40;-0.10;99.90
73586;DHT22;61865;50.232;18.614;2023-02-08T08:51:04;0.00;99.90
73586;DHT22;61865;50.232;18.614;2023-02-08T08:53:26;0.00;99.90
73586;DHT22;61865;50.232;18.614;2023-02-08T08:55:48;0.00;99.90
73586;DHT22;61865;50.232;18.614;2023-02-08T08:58:10;-0.20;99.90
73586;DHT22;61865;50.232;18.614;2023-02-08T09:00:32;-0.20;99.90
73586;DHT22;61865;50.232;18.614;2023-02-08T09:02:54;-0.40;99.90
73586;DHT22;61865;50.232;18.614;2023-02-08T09:05:16;-0.40;99.90
73586;DHT22;61865;50.232;18.614;2023-02-08T09:07:39;-0.50;99.90
73586;DHT22;61865;50.232;18.614;2023-02-08T09:10:01;-0.50;99.90
73586;DHT22;61865;50.232;18.614;2023-02-08T09:12:23;-0.50;99.90
73586;DHT22;61865;50.232;18.614;2023-02-08T09:14:45;-0.50;99.90
73586;DHT22;61865;50.232;18.614;2023-02-08T09:17:07;-0.50;99.90
73586;DHT22;61865;50.232;18.614;2023-02-08T09:19:29;-0.50;99.90
73586;DHT22;61865;50.232;18.614;2023-02-08T09:21:51;-0.50;99.90
73586;DHT22;61865;50.232;18.614;2023-02-08T09:24:15;-0.50;99.90
73586;DHT22;61865;50.232;18.614;2023-02-08T09:26:37;-0.50;99.90
73586;DHT22;61865;50.232;18.614;2023-02-08T09:28:59;-0.50;99.90
73586;DHT22;61865;50.232;18.614;2023-02-08T09:31:23;-0.50;99.90
73586;DHT22;61865;50.232;18.614;2023-02-08T09:33:46;-0.40;99.90
73586;DHT22;61865;50.232;18.614;2023-02-08T09:36:08;-0.30;99.90
73586;DHT22;61865;50.232;18.614;2023-02-08T09:38:30;-0.30;99.90
73586;DHT22;61865;50.232;18.614;2023-02-08T09:41:01;-0.40;99.90
73586;DHT22;61865;50.232;18.614;2023-02-08T09:43:32;-0.30;99.90
73586;DHT22;61865;50.232;18.614;2023-02-08T09:46:06;-0.30;99.90
73586;DHT22;61865;50.232;18.614;2023-02-08T09:48:32;-0.20;99.90
73586;DHT22;61865;50.232;18.614;2023-02-08T09:50:57;-0.30;99.90
73586;DHT22;61865;50.232;18.614;2023-02-08T09:53:22;-0.30;99.90
73586;DHT22;61865;50.232;18.614;2023-02-08T09:55:48;-0.20;99.90
73586;DHT22;61865;50.232;18.614;2023-02-08T09:58:18;-0.30;99.90
73586;DHT22;61865;50.232;18.614;2023-02-08T10:00:42;-0.20;99.90
73586;DHT22;61865;50.232;18.614;2023-02-08T10:03:08;-0.20;99.90
73586;DHT22;61865;50.232;18.614;2023-02-08T10:05:39;-0.10;99.90
73586;DHT22;61865;50.232;18.614;2023-02-08T10:08:01;-0.10;99.90
73586;DHT22;61865;50.232;18.614;2023-02-08T10:10:35;0.00;99.90
73586;DHT22;61865;50.232;18.614;2023-02-08T10:13:04;0.10;99.90
73586;DHT22;61865;50.232;18.614;2023-02-08T10:15:35;0.10;99.90
73586;DHT22;61865;50.232;18.614;2023-02-08T10:18:14;0.20;99.90
73586;DHT22;61865;50.232;18.614;2023-02-08T10:20:49;0.30;99.90
73586;DHT22;61865;50.232;18.614;2023-02-08T10:23:33;0.30;99.90
73586;DHT22;61865;50.232;18.614;2023-02-08T10:26:08;0.30;99.90
73586;DHT22;61865;50.232;18.614;2023-02-08T10:31:36;0.40;99.90
73586;DHT22;61865;50.232;18.614;2023-02-08T10:34:01;0.30;99.90
73586;DHT22;61865;50.232;18.614;2023-02-08T10:36:27;0.30;99.90
73586;DHT22;61865;50.232;18.614;2023-02-08T10:38:51;0.30;99.90
73586;DHT22;61865;50.232;18.614;2023-02-08T10:41:17;0.30;99.90
73586;DHT22;61865;50.232;18.614;2023-02-08T10:43:43;0.30;99.90
73586;DHT22;61865;50.232;18.614;2023-02-08T10:46:14;0.40;99.90
73586;DHT22;61865;50.232;18.614;2023-02-08T10:49:01;0.50;99.90
73586;DHT22;61865;50.232;18.614;2023-02-08T10:51:24;0.50;99.90
73586;DHT22;61865;50.232;18.614;2023-02-08T10:53:47;0.50;99.90
73586;DHT22;61865;50.232;18.614;2023-02-08T10:59:12;0.40;99.90
73586;DHT22;61865;50.232;18.614;2023-02-08T11:01:35;0.50;99.90
73586;DHT22;61865;50.232;18.614;2023-02-08T11:04:03;0.50;99.90
73586;DHT22;61865;50.232;18.614;2023-02-08T11:06:26;0.40;99.90
73586;DHT22;61865;50.232;18.614;2023-02-08T11:08:54;0.50;99.90
73586;DHT22;61865;50.232;18.614;2023-02-08T11:11:18;0.50;99.90
73586;DHT22;61865;50.232;18.614;2023-02-08T11:13:41;0.50;99.90
73586;DHT22;61865;50.232;18.614;2023-02-08T11:16:05;0.50;99.90
73586;DHT22;61865;50.232;18.614;2023-02-08T11:18:29;0.60;99.90
73586;DHT22;61865;50.232;18.614;2023-02-08T11:20:56;0.60;99.90
73586;DHT22;61865;50.232;18.614;2023-02-08T11:23:24;0.50;99.90
73586;DHT22;61865;50.232;18.614;2023-02-08T11:25:47;0.40;99.90
73586;DHT22;61865;50.232;18.614;2023-02-08T11:28:25;0.40;99.90
73586;DHT22;61865;50.232;18.614;2023-02-08T11:30:55;0.40;99.90
73586;DHT22;61865;50.232;18.614;2023-02-08T11:33:19;0.40;99.90
73586;DHT22;61865;50.232;18.614;2023-02-08T11:35:43;0.40;99.90
73586;DHT22;61865;50.232;18.614;2023-02-08T11:38:18;0.40;99.90
73586;DHT22;61865;50.232;18.614;2023-02-08T11:40:46;0.30;99.90
73586;DHT22;61865;50.232;18.614;2023-02-08T11:43:19;0.30;99.90
73586;DHT22;61865;50.232;18.614;2023-02-08T11:45:44;0.40;99.90
73586;DHT22;61865;50.232;18.614;2023-02-08T11:48:21;0.40;99.90
73586;DHT22;61865;50.232;18.614;2023-02-08T11:50:43;0.50;99.90
73586;DHT22;61865;50.232;18.614;2023-02-08T11:53:08;0.50;99.90
73586;DHT22;61865;50.232;18.614;2023-02-08T11:55:41;0.50;99.90
73586;DHT22;61865;50.232;18.614;2023-02-08T11:58:08;0.50;99.90
73586;DHT22;61865;50.232;18.614;2023-02-08T12:00:39;0.60;99.90
73586;DHT22;61865;50.232;18.614;2023-02-08T12:03:03;0.60;99.90
73586;DHT22;61865;50.232;18.614;2023-02-08T12:05:34;0.60;99.90
73586;DHT22;61865;50.232;18.614;2023-02-08T12:08:05;0.70;99.90
73586;DHT22;61865;50.232;18.614;2023-02-08T12:10:55;0.70;99.90
73586;DHT22;61865;50.232;18.614;2023-02-08T12:13:39;0.70;99.90
73586;DHT22;61865;50.232;18.614;2023-02-08T12:16:16;0.70;99.90
73586;DHT22;61865;50.232;18.614;2023-02-08T12:18:53;0.70;99.90
73586;DHT22;61865;50.232;18.614;2023-02-08T12:21:23;0.70;99.90
73586;DHT22;61865;50.232;18.614;2023-02-08T12:23:49;0.70;99.90
73586;DHT22;61865;50.232;18.614;2023-02-08T12:26:19;0.70;99.90
73586;DHT22;61865;50.232;18.614;2023-02-08T12:28:58;0.70;99.90
73586;DHT22;61865;50.232;18.614;2023-02-08T12:31:28;0.70;99.90
73586;DHT22;61865;50.232;18.614;2023-02-08T12:34:00;0.60;99.90
73586;DHT22;61865;50.232;18.614;2023-02-08T12:36:44;0.60;99.90
73586;DHT22;61865;50.232;18.614;2023-02-08T12:39:20;0.70;99.90
73586;DHT22;61865;50.232;18.614;2023-02-08T12:42:20;0.70;99.90
73586;DHT22;61865;50.232;18.614;2023-02-08T12:45:00;0.70;99.90
73586;DHT22;61865;50.232;18.614;2023-02-08T12:47:36;0.70;99.90
73586;DHT22;61865;50.232;18.614;2023-02-08T12:50:09;0.70;99.90
73586;DHT22;61865;50.232;18.614;2023-02-08T12:52:36;0.70;99.90
73586;DHT22;61865;50.232;18.614;2023-02-08T12:55:02;0.70;99.90
73586;DHT22;61865;50.232;18.614;2023-02-08T12:57:28;0.70;99.90
73586;DHT22;61865;50.232;18.614;2023-02-08T12:59:55;0.80;99.90
73586;DHT22;61865;50.232;18.614;2023-02-08T13:02:21;0.80;99.90
73586;DHT22;61865;50.232;18.614;2023-02-08T13:04:47;0.80;99.90
73586;DHT22;61865;50.232;18.614;2023-02-08T13:07:13;0.80;99.90
73586;DHT22;61865;50.232;18.614;2023-02-08T13:09:40;0.80;99.90
73586;DHT22;61865;50.232;18.614;2023-02-08T13:12:07;0.80;99.90
73586;DHT22;61865;50.232;18.614;2023-02-08T13:14:37;0.80;99.90
73586;DHT22;61865;50.232;18.614;2023-02-08T13:17:04;0.80;99.90
73586;DHT22;61865;50.232;18.614;2023-02-08T13:19:30;0.80;99.90
73586;DHT22;61865;50.232;18.614;2023-02-08T13:21:53;0.80;99.90
73586;DHT22;61865;50.232;18.614;2023-02-08T13:24:25;0.80;99.90
73586;DHT22;61865;50.232;18.614;2023-02-08T13:26:48;0.80;99.90
73586;DHT22;61865;50.232;18.614;2023-02-08T13:29:15;0.80;99.90
73586;DHT22;61865;50.232;18.614;2023-02-08T13:31:41;0.90;99.90
73586;DHT22;61865;50.232;18.614;2023-02-08T13:34:07;0.90;99.90
73586;DHT22;61865;50.232;18.614;2023-02-08T13:36:35;0.90;99.90
73586;DHT22;61865;50.232;18.614;2023-02-08T13:38:58;0.80;99.90
73586;DHT22;61865;50.232;18.614;2023-02-08T13:41:22;0.80;99.90
73586;DHT22;61865;50.232;18.614;2023-02-08T13:43:49;0.80;99.90
73586;DHT22;61865;50.232;18.614;2023-02-08T13:46:11;0.80;99.90
73586;DHT22;61865;50.232;18.614;2023-02-08T13:48:43;0.70;99.90
73586;DHT22;61865;50.232;18.614;2023-02-08T13:51:05;0.70;99.90
73586;DHT22;61865;50.232;18.614;2023-02-08T13:56:37;0.70;99.90
73586;DHT22;61865;50.232;18.614;2023-02-08T13:59:00;0.60;99.90
73586;DHT22;61865;50.232;18.614;2023-02-08T14:01:24;0.70;99.90
73586;DHT22;61865;50.232;18.614;2023-02-08T14:06:55;0.60;99.90
73586;DHT22;61865;50.232;18.614;2023-02-08T14:09:22;0.60;99.90
73586;DHT22;61865;50.232;18.614;2023-02-08T14:11:48;0.60;99.90
73586;DHT22;61865;50.232;18.614;2023-02-08T14:14:14;0.50;99.90
73586;DHT22;61865;50.232;18.614;2023-02-08T14:16:37;0.50;99.90
73586;DHT22;61865;50.232;18.614;2023-02-08T14:19:01;0.50;99.90
73586;DHT22;61865;50.232;18.614;2023-02-08T14:21:33;0.50;99.90
73586;DHT22;61865;50.232;18.614;2023-02-08T14:24:03;0.50;99.90
73586;DHT22;61865;50.232;18.614;2023-02-08T14:26:26;0.50;99.90
73586;DHT22;61865;50.232;18.614;2023-02-08T14:28:53;0.50;99.90
73586;DHT22;61865;50.232;18.614;2023-02-08T14:31:17;0.50;99.90
73586;DHT22;61865;50.232;18.614;2023-02-08T14:33:50;0.40;99.90
73586;DHT22;61865;50.232;18.614;2023-02-08T14:36:27;0.40;99.90
73586;DHT22;61865;50.232;18.614;2023-02-08T14:38:54;0.40;99.90
73586;DHT22;61865;50.232;18.614;2023-02-08T14:41:50;0.40;99.90
73586;DHT22;61865;50.232;18.614;2023-02-08T14:50:27;0.30;99.90
73586;DHT22;61865;50.232;18.614;2023-02-08T14:52:57;0.30;99.90
73586;DHT22;61865;50.232;18.614;2023-02-08T14:55:22;0.30;99.90
73586;DHT22;61865;50.232;18.614;2023-02-08T14:57:47;0.30;99.90
73586;DHT22;61865;50.232;18.614;2023-02-08T15:00:17;0.20;99.90
73586;DHT22;61865;50.232;18.614;2023-02-08T15:02:43;0.20;99.90
73586;DHT22;61865;50.232;18.614;2023-02-08T15:05:05;0.20;99.90
73586;DHT22;61865;50.232;18.614;2023-02-08T15:07:30;0.20;99.90
73586;DHT22;61865;50.232;18.614;2023-02-08T15:09:55;0.10;99.90
73586;DHT22;61865;50.232;18.614;2023-02-08T15:12:22;0.10;99.90
73586;DHT22;61865;50.232;18.614;2023-02-08T15:14:47;0.00;99.90
73586;DHT22;61865;50.232;18.614;2023-02-08T15:17:19;0.00;99.90
73586;DHT22;61865;50.232;18.614;2023-02-08T15:19:41;0.00;99.90
73586;DHT22;61865;50.232;18.614;2023-02-08T15:22:26;-0.10;99.90
73586;DHT22;61865;50.232;18.614;2023-02-08T15:24:50;-0.20;99.90
73586;DHT22;61865;50.232;18.614;2023-02-08T15:27:19;-0.20;99.90
73586;DHT22;61865;50.232;18.614;2023-02-08T15:29:42;-0.30;99.90
73586;DHT22;61865;50.232;18.614;2023-02-08T15:32:11;-0.30;99.90
73586;DHT22;61865;50.232;18.614;2023-02-08T15:34:34;-0.30;99.90